Time;durP1;ratioP1;P1;durP2;ratioP2;P2;SDS_P1;SDS_P2;PMS_P1;PMS_P2;Temp;Humidity;BMP_temperature;BMP_pressure;BME280_temperature;BME280_humidity;BME280_pressure;Samples;Min_cycle;Max_cycle;Signal;HPM_P1;HPM_P2
2021/12/22 00:02:32;;;;;;;129.30;53.40;;;;;;;-3.82;80.19;99266.77;103158;1326;22669;-83
2021/12/22 00:04:59;;;;;;;116.30;50.70;;;;;;;-3.81;80.15;99269.55;103333;1319;138067;-83
2021/12/22 00:07:26;;;;;;;115.90;50.50;;;;;;;-3.80;80.10;99265.18;103641;1323;25537;-83
2021/12/22 00:09:53;;;;;;;130.10;52.60;;;;;;;-3.81;79.74;99266.38;103676;1318;138143;-82
2021/12/22 00:12:20;;;;;;;131.20;57.00;;;;;;;-3.80;80.33;99272.63;103546;1323;22610;-83
2021/12/22 00:14:47;;;;;;;140.80;58.10;;;;;;;-3.80;80.18;99269.61;103378;1318;23190;-83
2021/12/22 00:17:14;;;;;;;136.50;55.60;;;;;;;-3.78;80.10;99273.92;103511;1322;137339;-82
2021/12/22 00:19:41;;;;;;;140.20;57.60;;;;;;;-3.79;79.92;99273.67;103707;1319;22658;-83
2021/12/22 00:22:09;;;;;;;151.00;58.10;;;;;;;-3.79;79.97;99275.63;103386;1319;137796;-82
2021/12/22 00:24:36;;;;;;;135.70;57.70;;;;;;;-3.83;80.07;99272.34;103411;1325;24576;-83
2021/12/22 00:27:03;;;;;;;122.30;51.90;;;;;;;-3.83;80.39;99274.48;103320;1322;138577;-83
2021/12/22 00:29:30;;;;;;;113.40;48.80;;;;;;;-3.80;80.13;99281.73;103575;1319;22693;-83
2021/12/22 00:32:09;;;;;;;123.80;51.80;;;;;;;-3.77;80.32;99280.77;103485;1319;24463;-83
2021/12/22 00:34:47;;;;;;;127.40;51.90;;;;;;;-3.78;80.53;99275.83;103501;1318;137652;-82
2021/12/22 00:37:20;;;;;;;113.60;52.10;;;;;;;-3.78;80.25;99285.80;103285;1323;22733;-83
2021/12/22 00:39:47;;;;;;;123.00;52.90;;;;;;;-3.79;80.66;99286.42;103311;1319;137778;-83
2021/12/22 00:42:15;;;;;;;128.90;56.60;;;;;;;-3.78;80.89;99289.39;103359;1323;24435;-83
2021/12/22 00:44:46;;;;;;;124.70;56.00;;;;;;;-3.79;80.50;99292.77;103535;1322;22649;-82
2021/12/22 00:47:13;;;;;;;124.60;53.10;;;;;;;-3.77;80.72;99292.96;102888;1321;137962;-82
2021/12/22 00:49:40;;;;;;;137.20;57.00;;;;;;;-3.73;80.31;99292.86;103252;1318;22609;-81
2021/12/22 00:52:07;;;;;;;132.50;55.30;;;;;;;-3.70;80.85;99296.84;103305;1319;137997;-82
2021/12/22 00:54:35;;;;;;;131.80;53.80;;;;;;;-3.67;80.88;99300.48;103223;1323;22656;-82
2021/12/22 00:57:05;;;;;;;130.00;55.90;;;;;;;-3.68;80.70;99301.79;103275;1325;137764;-82
2021/12/22 00:59:34;;;;;;;134.40;55.60;;;;;;;-3.73;80.89;99309.45;103208;1325;23296;-82
2021/12/22 01:02:04;;;;;;;134.00;56.10;;;;;;;-3.76;80.69;99306.74;103301;1318;23985;-83
2021/12/22 01:04:31;;;;;;;121.10;54.70;;;;;;;-3.81;80.69;99308.91;103179;1318;138543;-83
2021/12/22 01:06:58;;;;;;;118.10;50.70;;;;;;;-3.80;81.06;99306.89;103241;1318;25239;-83
2021/12/22 01:09:25;;;;;;;135.70;56.10;;;;;;;-3.77;80.95;99305.81;103261;1319;137792;-83
2021/12/22 01:12:07;;;;;;;141.50;56.90;;;;;;;-3.75;80.96;99311.45;103337;1325;24807;-83
2021/12/22 01:14:36;;;;;;;135.10;55.20;;;;;;;-3.77;80.76;99312.17;103243;1323;22636;-83
2021/12/22 01:17:05;;;;;;;120.80;49.40;;;;;;;-3.81;80.61;99313.41;103263;1323;137732;-82
2021/12/22 01:19:57;;;;;;;139.90;59.40;;;;;;;-3.88;80.97;99312.39;103311;1318;22628;-82
2021/12/22 01:22:35;;;;;;;141.60;60.70;;;;;;;-3.96;81.05;99312.33;103495;1318;138122;-84
2021/12/22 01:25:06;;;;;;;131.10;58.20;;;;;;;-3.99;81.31;99312.41;103414;1318;22685;-82
2021/12/22 01:27:38;;;;;;;138.80;57.00;;;;;;;-3.98;81.52;99310.23;103349;1319;138174;-84
2021/12/22 01:30:21;;;;;;;150.30;59.30;;;;;;;-3.95;81.79;99314.89;103270;1318;24310;-84
2021/12/22 01:32:51;;;;;;;147.40;60.80;;;;;;;-3.91;81.43;99319.37;103153;1319;25730;-83
2021/12/22 01:35:21;;;;;;;143.20;60.50;;;;;;;-3.91;81.76;99319.71;103095;1325;137850;-84
2021/12/22 01:37:49;;;;;;;157.30;63.80;;;;;;;-3.95;81.78;99323.59;103135;1322;25733;-84
2021/12/22 01:40:18;;;;;;;142.70;60.40;;;;;;;-3.96;81.96;99321.08;103309;1319;138154;-84
2021/12/22 01:42:45;;;;;;;140.70;59.90;;;;;;;-3.97;81.90;99324.86;103303;1323;24245;-83
2021/12/22 01:45:36;;;;;;;154.70;63.30;;;;;;;-3.99;82.05;99324.30;103005;1326;138121;-83
2021/12/22 01:50:51;;;;;;;155.30;62.70;;;;;;;-3.95;82.35;99326.13;103213;1319;25358;-83
2021/12/22 01:53:21;;;;;;;161.90;67.10;;;;;;;-3.95;82.49;99317.62;103311;1326;138102;-83
2021/12/22 01:56:25;;;;;;;150.80;62.50;;;;;;;-3.95;82.38;99317.08;103324;1322;22577;-83
2021/12/22 01:58:56;;;;;;;140.50;59.40;;;;;;;-3.96;82.57;99317.44;103078;1325;138480;-83
2021/12/22 02:01:27;;;;;;;148.10;63.50;;;;;;;-3.96;82.57;99314.48;103367;1323;25441;-83
2021/12/22 02:03:55;;;;;;;159.40;64.90;;;;;;;-3.95;82.78;99314.23;103315;1323;138485;-83
2021/12/22 02:06:23;;;;;;;158.50;63.70;;;;;;;-3.94;83.00;99315.95;103447;1318;22568;-82
2021/12/22 02:08:52;;;;;;;156.80;64.50;;;;;;;-3.94;82.64;99316.09;103635;1321;22600;-83
2021/12/22 02:11:21;;;;;;;149.80;64.80;;;;;;;-3.94;82.50;99317.33;103214;1319;138398;-83
2021/12/22 02:13:54;;;;;;;158.30;64.60;;;;;;;-3.95;82.52;99318.88;103359;1319;23087;-84
2021/12/22 02:16:28;;;;;;;163.90;65.10;;;;;;;-3.96;82.66;99320.55;103127;1323;138886;-84
2021/12/22 02:18:55;;;;;;;171.50;67.50;;;;;;;-3.97;83.34;99317.21;103527;1319;25402;-84
2021/12/22 02:21:25;;;;;;;157.90;64.30;;;;;;;-3.97;83.20;99315.09;103324;1319;138395;-83
2021/12/22 02:23:53;;;;;;;162.50;67.60;;;;;;;-3.96;83.34;99311.51;103583;1318;22587;-83
2021/12/22 02:26:27;;;;;;;156.70;65.30;;;;;;;-3.96;83.51;99316.20;103726;1316;24686;-84
2021/12/22 02:29:00;;;;;;;147.70;60.20;;;;;;;-3.92;83.07;99312.38;103575;1319;141026;-83
2021/12/22 02:31:27;;;;;;;161.10;66.10;;;;;;;-3.89;83.24;99312.11;103824;1322;23090;-84
2021/12/22 02:33:55;;;;;;;171.00;66.90;;;;;;;-3.85;83.20;99310.48;103465;1318;137822;-83
2021/12/22 02:36:24;;;;;;;162.00;66.80;;;;;;;-3.84;83.43;99309.88;103816;1319;22572;-84
2021/12/22 02:39:07;;;;;;;155.30;67.10;;;;;;;-3.82;83.33;99313.58;103449;1324;137848;-83
2021/12/22 02:41:37;;;;;;;;;;;;;;;-3.82;83.02;99314.30;103766;1321;24240;-84
2021/12/22 02:44:08;;;;;;;137.30;58.20;;;;;;;-3.77;83.18;99318.58;103437;1322;25431;-84
2021/12/22 02:46:37;;;;;;;145.40;62.10;;;;;;;-3.77;83.15;99319.20;103339;1322;138271;-84
2021/12/22 02:49:07;;;;;;;157.90;63.40;;;;;;;-3.75;83.25;99319.44;103719;1323;23401;-84
2021/12/22 02:51:48;;;;;;;149.10;62.50;;;;;;;-3.74;83.07;99318.48;103183;1325;137753;-83
2021/12/22 02:54:20;;;;;;;159.10;63.70;;;;;;;-3.76;83.04;99317.87;103116;1321;22598;-84
2021/12/22 03:04:21;;;;;;;154.80;60.60;;;;;;;-3.74;83.16;99316.73;103254;1319;138219;-83
2021/12/22 03:09:23;;;;;;;147.40;60.80;;;;;;;-3.75;83.15;99309.66;103295;1323;138523;-83
2021/12/22 03:11:53;;;;;;;142.50;58.00;;;;;;;-3.76;83.18;99316.27;103733;1319;22594;-83
2021/12/22 03:14:34;;;;;;;152.70;64.60;;;;;;;-3.77;83.20;99323.86;103529;1322;22657;-84
2021/12/22 03:17:01;;;;;;;141.70;61.60;;;;;;;-3.80;83.32;99321.13;103413;1320;138765;-83
2021/12/22 03:19:31;;;;;;;146.90;59.90;;;;;;;-3.78;82.93;99321.66;103456;1322;22587;-84
2021/12/22 03:22:03;;;;;;;;;;;;;;;-3.76;83.09;99325.60;103431;1325;138320;-83
2021/12/22 03:24:33;;;;;;;141.60;56.80;;;;;;;-3.78;83.00;99321.45;103497;1318;22671;-83
2021/12/22 03:27:03;;;;;;;150.90;58.30;;;;;;;-3.80;83.35;99324.09;103789;1321;137716;-84
2021/12/22 03:29:33;;;;;;;149.80;58.80;;;;;;;-3.82;83.20;99318.98;103410;1323;22726;-83
2021/12/22 03:32:00;;;;;;;141.40;59.80;;;;;;;-3.85;83.26;99315.85;103590;1318;22602;-84
2021/12/22 03:34:27;;;;;;;138.70;59.70;;;;;;;-3.87;83.69;99316.55;103473;1318;138480;-84
2021/12/22 03:36:55;;;;;;;137.50;56.00;;;;;;;-3.87;83.42;99315.88;103536;1319;22632;-83
2021/12/22 03:39:22;;;;;;;146.80;56.60;;;;;;;-3.86;83.52;99319.15;103467;1319;138353;-83
2021/12/22 03:41:49;;;;;;;137.10;57.40;;;;;;;-3.89;83.19;99322.41;103729;1319;23445;-84
2021/12/22 03:44:17;;;;;;;148.20;58.80;;;;;;;-3.91;83.57;99327.21;103857;1325;22635;-84
2021/12/22 03:46:44;;;;;;;147.20;59.40;;;;;;;-3.92;83.85;99333.48;103280;1319;138671;-84
2021/12/22 03:49:13;;;;;;;158.90;65.80;;;;;;;-3.94;83.55;99330.45;103568;1319;24815;-84
2021/12/22 03:51:40;;;;;;;167.50;66.50;;;;;;;-3.94;83.47;99334.40;103411;1323;139135;-84
2021/12/22 03:54:09;;;;;;;145.10;60.50;;;;;;;-3.93;84.23;99338.16;103563;1319;25447;-83
2021/12/22 03:56:50;;;;;;;151.30;59.30;;;;;;;-3.92;84.22;99331.84;103212;1325;22818;-83
2021/12/22 03:59:18;;;;;;;186.60;63.40;;;;;;;-3.90;83.95;99334.88;103457;1325;137838;-83
2021/12/22 04:01:47;;;;;;;162.60;62.80;;;;;;;-3.88;84.58;99331.23;103616;1321;24373;-83
2021/12/22 04:04:17;;;;;;;169.80;64.10;;;;;;;-3.85;84.61;99331.30;103565;1318;137836;-83
2021/12/22 04:06:50;;;;;;;162.00;65.70;;;;;;;-3.83;84.54;99325.95;103522;1322;22677;-82
2021/12/22 04:09:18;;;;;;;147.80;58.90;;;;;;;-3.77;84.76;99326.02;103584;1318;138392;-82
2021/12/22 04:11:45;;;;;;;161.10;61.50;;;;;;;-3.74;84.95;99325.02;103606;1319;22810;-82
2021/12/22 04:14:12;;;;;;;162.80;62.20;;;;;;;-3.71;84.78;99325.81;103087;1320;23458;-82
2021/12/22 04:16:39;;;;;;;152.70;61.30;;;;;;;-3.70;84.88;99325.02;103318;1322;138079;-82
2021/12/22 04:19:06;;;;;;;174.40;67.70;;;;;;;-3.67;84.85;99330.06;103713;1320;24313;-82
2021/12/22 04:21:33;;;;;;;155.10;63.60;;;;;;;-3.67;84.81;99327.06;103596;1319;139171;-82
2021/12/22 04:24:01;;;;;;;145.00;57.00;;;;;;;-3.63;85.05;99332.77;103542;1318;22653;-82
2021/12/22 04:26:31;;;;;;;147.30;59.40;;;;;;;-3.60;84.68;99333.41;103434;1324;24399;-82
2021/12/22 04:28:59;;;;;;;157.30;59.30;;;;;;;-3.58;84.87;99341.20;103563;1318;138696;-82
2021/12/22 04:31:26;;;;;;;150.40;59.80;;;;;;;-3.57;85.21;99340.91;103566;1319;22627;-82
2021/12/22 04:33:53;;;;;;;179.60;63.70;;;;;;;-3.54;84.80;99345.70;103533;1318;137950;-82
2021/12/22 04:36:20;;;;;;;153.20;61.10;;;;;;;-3.56;85.02;99345.65;103734;1320;22696;-82
2021/12/22 04:38:47;;;;;;;140.60;55.10;;;;;;;-3.55;84.80;99344.00;103617;1324;25364;-82
2021/12/22 04:41:14;;;;;;;142.50;59.30;;;;;;;-3.55;84.80;99346.42;103455;1316;137559;-82
2021/12/22 04:43:41;;;;;;;154.30;59.90;;;;;;;-3.55;84.78;99346.66;103372;1318;22697;-82
2021/12/22 04:46:08;;;;;;;141.60;56.70;;;;;;;-3.54;85.11;99347.27;103366;1321;137914;-82
2021/12/22 04:48:35;;;;;;;153.00;59.80;;;;;;;-3.54;84.85;99349.59;103481;1324;23341;-82
2021/12/22 04:51:12;;;;;;;149.40;59.70;;;;;;;-3.55;84.79;99349.79;103421;1325;139181;-81
2021/12/22 04:56:40;;;;;;;127.80;51.60;;;;;;;-3.46;85.10;99357.94;102469;1325;22641;-82
2021/12/22 04:59:07;;;;;;;126.20;52.00;;;;;;;-3.44;85.08;99359.52;103354;1319;137790;-82
2021/12/22 05:01:48;;;;;;;126.90;50.70;;;;;;;-3.45;84.68;99351.79;103200;1318;267648;-82
2021/12/22 05:04:15;;;;;;;130.70;52.90;;;;;;;-3.46;84.62;99349.00;103420;1318;137834;-82
2021/12/22 05:06:42;;;;;;;116.10;48.10;;;;;;;-3.47;84.45;99349.46;103554;1324;22739;-82
2021/12/22 05:09:09;;;;;;;117.10;51.10;;;;;;;-3.46;84.48;99345.88;103275;1318;138355;-82
2021/12/22 05:11:36;;;;;;;127.40;51.20;;;;;;;-3.44;84.65;99349.06;103578;1319;24254;-82
2021/12/22 05:14:04;;;;;;;123.30;50.50;;;;;;;-3.44;84.47;99354.33;103535;1319;22599;-82
2021/12/22 05:16:31;;;;;;;118.20;47.70;;;;;;;-3.45;84.45;99353.91;103656;1324;138096;-82
2021/12/22 05:19:10;;;;;;;118.40;47.90;;;;;;;-3.46;84.38;99351.02;103604;1318;22602;-82
2021/12/22 05:21:37;;;;;;;116.60;49.30;;;;;;;-3.48;84.41;99349.73;103501;1319;137809;-82
2021/12/22 05:24:05;;;;;;;120.60;48.00;;;;;;;-3.50;84.13;99353.25;103598;1322;22737;-82
2021/12/22 05:26:32;;;;;;;120.60;49.50;;;;;;;-3.48;84.47;99354.17;103571;1322;24389;-82
2021/12/22 05:28:59;;;;;;;119.30;49.00;;;;;;;-3.49;84.14;99356.89;103453;1319;137783;-82
2021/12/22 05:31:27;;;;;;;130.10;52.00;;;;;;;-3.52;84.17;99357.19;103642;1318;23480;-82
2021/12/22 05:33:55;;;;;;;109.50;47.90;;;;;;;-3.52;84.45;99358.09;103360;1319;138335;-82
2021/12/22 05:36:22;;;;;;;135.80;51.50;;;;;;;-3.53;84.17;99356.77;103523;1321;22650;-82
2021/12/22 05:38:49;;;;;;;133.00;54.20;;;;;;;-3.59;83.95;99359.36;103584;1323;22838;-82
2021/12/22 05:41:16;;;;;;;125.80;52.40;;;;;;;-3.63;83.69;99360.13;103369;1319;138981;-82
2021/12/22 05:43:57;;;;;;;123.80;49.90;;;;;;;-3.65;83.94;99361.15;103435;1323;22656;-82
2021/12/22 05:46:24;;;;;;;128.40;51.10;;;;;;;-3.67;83.80;99363.07;103307;1319;137823;-82
2021/12/22 05:49:05;;;;;;;139.40;51.40;;;;;;;-3.70;84.01;99362.13;103551;1324;22552;-82
2021/12/22 05:51:34;;;;;;;115.50;47.10;;;;;;;-3.74;83.76;99365.14;103586;1319;138003;-82
2021/12/22 05:54:01;;;;;;;113.10;47.80;;;;;;;-3.77;84.06;99371.80;103385;1321;22641;-82
2021/12/22 05:56:30;;;;;;;124.00;50.30;;;;;;;-3.79;84.06;99372.61;103230;1322;22738;-82
2021/12/22 05:58:57;;;;;;;114.40;50.50;;;;;;;-3.79;84.21;99376.58;103234;1324;138712;-82
2021/12/22 06:01:24;;;;;;;112.60;46.60;;;;;;;-3.78;83.94;99372.62;103241;1319;23203;-81
2021/12/22 06:03:50;;;;;;;129.20;50.80;;;;;;;-3.75;84.28;99380.14;103211;1325;139173;-82
2021/12/22 06:06:17;;;;;;;132.00;49.90;;;;;;;-3.73;84.31;99387.52;103336;1324;24242;-83
2021/12/22 06:08:44;;;;;;;129.00;49.60;;;;;;;-3.72;84.46;99393.02;103225;1318;22616;-83
2021/12/22 06:11:11;;;;;;;124.40;51.80;;;;;;;-3.72;84.55;99399.54;103203;1323;138118;-84
2021/12/22 06:13:38;;;;;;;125.10;52.50;;;;;;;-3.73;84.37;99397.00;103796;1319;22604;-84
2021/12/22 06:16:05;;;;;;;122.00;50.20;;;;;;;-3.74;84.05;99404.13;103350;1319;138139;-83
2021/12/22 06:18:34;;;;;;;131.10;49.00;;;;;;;-3.72;84.08;99409.67;103352;1325;22580;-83
2021/12/22 06:21:01;;;;;;;136.00;53.40;;;;;;;-3.69;84.36;99406.59;103234;1323;138350;-83
2021/12/22 06:23:28;;;;;;;135.90;52.80;;;;;;;-3.68;84.33;99407.00;103228;1324;22612;-83
2021/12/22 06:25:55;;;;;;;140.60;54.50;;;;;;;-3.69;84.46;99410.81;103350;1318;22642;-83
2021/12/22 06:28:22;;;;;;;138.60;55.10;;;;;;;-3.70;84.49;99419.77;103255;1319;137796;-83
2021/12/22 06:30:49;;;;;;;139.50;54.30;;;;;;;-3.74;84.47;99420.97;103284;1318;22657;-83
2021/12/22 06:33:16;;;;;;;133.20;52.70;;;;;;;-3.75;84.01;99426.77;103201;1325;138213;-83
2021/12/22 06:35:46;;;;;;;139.40;52.40;;;;;;;-3.75;84.07;99430.53;103230;1323;22628;-83
2021/12/22 06:38:16;;;;;;;128.50;51.20;;;;;;;-3.76;84.38;99431.60;103265;1319;23108;-83
2021/12/22 06:40:43;;;;;;;117.00;49.30;;;;;;;-3.76;84.14;99434.14;103311;1324;137851;-83
2021/12/22 06:43:10;;;;;;;138.90;51.90;;;;;;;-3.75;84.57;99436.00;103487;1324;25056;-83
2021/12/22 06:45:37;;;;;;;135.70;55.20;;;;;;;-3.75;84.46;99436.85;103038;1324;138384;-83
2021/12/22 06:48:04;;;;;;;129.20;54.90;;;;;;;-3.72;84.43;99436.14;103318;1318;25331;-83
2021/12/22 06:50:31;;;;;;;115.20;49.00;;;;;;;-3.67;84.61;99440.46;103374;1318;22695;-83
2021/12/22 06:52:58;;;;;;;128.60;52.90;;;;;;;-3.63;84.16;99442.79;103272;1323;138211;-83
2021/12/22 06:55:25;;;;;;;132.80;51.80;;;;;;;-3.59;84.10;99449.92;103238;1323;24288;-83
2021/12/22 06:57:53;;;;;;;133.80;51.60;;;;;;;-3.55;84.25;99454.58;103152;1321;137962;-83
2021/12/22 07:00:21;;;;;;;127.50;50.60;;;;;;;-3.53;84.20;99456.86;103290;1325;22766;-83
2021/12/22 07:02:48;;;;;;;146.50;56.20;;;;;;;-3.52;84.24;99455.14;103325;1318;24432;-83
2021/12/22 07:05:32;;;;;;;145.40;52.20;;;;;;;-3.48;84.09;99455.35;103255;1318;138158;-83
2021/12/22 07:07:59;;;;;;;142.30;57.20;;;;;;;-3.46;84.16;99456.74;103466;1320;24247;-84
2021/12/22 07:10:26;;;;;;;143.50;56.80;;;;;;;-3.41;84.21;99461.54;103000;1322;137763;-83
2021/12/22 07:12:53;;;;;;;137.60;57.20;;;;;;;-3.39;83.96;99462.23;103271;1318;26286;-83
2021/12/22 07:15:21;;;;;;;134.30;55.20;;;;;;;-3.39;83.77;99471.45;103137;1325;138147;-83
2021/12/22 07:17:50;;;;;;;141.90;58.10;;;;;;;-3.40;83.41;99475.49;103325;1324;22633;-84
2021/12/22 07:20:18;;;;;;;146.10;58.60;;;;;;;-3.41;83.72;99478.38;103187;1321;22574;-83
2021/12/22 07:22:45;;;;;;;132.00;54.40;;;;;;;-3.41;83.27;99481.96;103102;1322;138542;-83
2021/12/22 07:25:13;;;;;;;119.60;51.80;;;;;;;-3.44;83.28;99483.61;103343;1322;22926;-83
2021/12/22 07:27:40;;;;;;;138.90;54.10;;;;;;;-3.42;83.53;99487.04;103348;1320;138386;-83
2021/12/22 07:30:08;;;;;;;133.50;53.20;;;;;;;-3.39;83.93;99491.18;103383;1322;23428;-83
2021/12/22 07:32:35;;;;;;;128.30;53.50;;;;;;;-3.35;83.82;99492.13;103204;1325;22570;-83
2021/12/22 07:35:10;;;;;;;135.80;54.70;;;;;;;-3.34;83.67;99492.02;103308;1321;138201;-83
2021/12/22 07:37:40;;;;;;;141.20;55.70;;;;;;;-3.35;83.39;99494.54;103111;1325;24279;-83
2021/12/22 07:40:10;;;;;;;128.60;54.40;;;;;;;-3.36;83.23;99496.27;103402;1326;138662;-83
2021/12/22 07:42:38;;;;;;;137.90;53.50;;;;;;;-3.38;82.71;99498.20;103462;1320;22635;-83
2021/12/22 07:45:06;;;;;;;139.00;55.10;;;;;;;-3.41;82.94;99500.77;104103;1325;22719;-83
2021/12/22 07:47:33;;;;;;;130.80;54.10;;;;;;;-3.42;82.89;99506.55;103670;1321;137915;-83
2021/12/22 07:50:00;;;;;;;132.30;56.70;;;;;;;-3.45;82.86;99503.03;103878;1325;22664;-83
2021/12/22 07:52:27;;;;;;;136.20;56.10;;;;;;;-3.43;83.04;99505.89;103419;1320;138520;-83
2021/12/22 07:54:55;;;;;;;153.60;61.20;;;;;;;-3.41;83.10;99510.34;104074;1319;23323;-83
2021/12/22 07:57:22;;;;;;;153.80;59.70;;;;;;;-3.41;83.15;99511.23;103522;1319;138689;-83
2021/12/22 07:59:49;;;;;;;134.40;58.10;;;;;;;-3.36;82.94;99511.04;103424;1321;22601;-83
2021/12/22 08:02:16;;;;;;;140.90;54.20;;;;;;;-3.32;82.75;99508.73;103284;1318;22625;-82
2021/12/22 08:04:43;;;;;;;149.70;60.10;;;;;;;-3.27;83.31;99514.30;103164;1323;137863;-83
2021/12/22 08:07:10;;;;;;;126.30;49.20;;;;;;;-3.19;83.08;99514.71;103164;1320;22584;-83
2021/12/22 08:09:37;;;;;;;147.00;60.00;;;;;;;-3.16;82.85;99517.48;103037;1325;138646;-83
2021/12/22 08:12:05;;;;;;;137.90;56.70;;;;;;;-3.15;82.78;99520.59;103438;1318;22654;-83
2021/12/22 08:14:38;;;;;;;144.70;59.50;;;;;;;-3.11;83.06;99525.05;103509;1323;22597;-83
2021/12/22 08:17:08;;;;;;;137.60;59.70;;;;;;;-3.07;82.42;99519.05;103619;1319;138811;-83
2021/12/22 08:19:35;;;;;;;124.10;52.10;;;;;;;-3.02;82.58;99518.38;103259;1324;24427;-83
2021/12/22 08:22:16;;;;;;;146.10;56.70;;;;;;;-2.95;82.08;99515.46;103032;1324;137704;-83
2021/12/22 08:24:43;;;;;;;136.30;56.50;;;;;;;-2.86;82.53;99518.48;103344;1322;22729;-83
2021/12/22 08:27:10;;;;;;;132.50;58.60;;;;;;;-2.79;82.36;99524.80;103161;1323;22998;-83
2021/12/22 08:29:42;;;;;;;137.80;55.50;;;;;;;-2.70;82.40;99524.19;103310;1319;137799;-83
2021/12/22 08:32:11;;;;;;;120.60;49.80;;;;;;;-2.58;82.50;99521.91;103436;1319;24272;-83
2021/12/22 08:34:40;;;;;;;139.10;56.60;;;;;;;-2.40;83.01;99521.87;103120;1323;137799;-83
2021/12/22 08:39:56;;;;;;;126.90;54.20;;;;;;;-2.14;81.37;99525.80;103285;1320;138707;-83
2021/12/22 08:42:24;;;;;;;135.40;54.70;;;;;;;-2.10;80.97;99526.70;103559;1319;22586;-83
2021/12/22 08:44:52;;;;;;;119.20;55.10;;;;;;;-2.04;81.07;99524.02;103323;1324;22598;-83
2021/12/22 08:47:20;;;;;;;121.90;54.00;;;;;;;-1.95;80.84;99527.89;103300;1323;137845;-83
2021/12/22 08:49:47;;;;;;;134.00;55.10;;;;;;;-1.90;80.43;99526.90;102970;1322;22734;-84
2021/12/22 08:52:15;;;;;;;122.20;53.10;;;;;;;-1.85;80.40;99524.42;103327;1319;138690;-83
2021/12/22 08:54:56;;;;;;;128.10;52.30;;;;;;;-1.79;80.20;99525.75;103258;1325;22672;-83
2021/12/22 08:57:23;;;;;;;121.40;50.80;;;;;;;-1.73;80.10;99527.27;103011;1325;138040;-84
2021/12/22 08:59:51;;;;;;;114.40;50.30;;;;;;;-1.67;79.88;99528.04;103464;1323;25328;-84
2021/12/22 09:02:18;;;;;;;123.30;49.30;;;;;;;-1.67;79.17;99527.64;103451;1319;25357;-84
2021/12/22 09:04:45;;;;;;;104.90;46.40;;;;;;;-1.70;78.83;99530.92;103406;1323;138462;-84
2021/12/22 09:07:12;;;;;;;101.90;43.10;;;;;;;-1.73;78.33;99527.27;103794;1324;22610;-84
2021/12/22 09:09:39;;;;;;;101.20;42.40;;;;;;;-1.77;78.15;99527.30;103472;1326;138029;-84
2021/12/22 09:12:07;;;;;;;91.10;40.00;;;;;;;-1.77;78.37;99530.28;103473;1326;24541;-82
2021/12/22 09:14:35;;;;;;;97.20;41.40;;;;;;;-1.74;78.68;99529.66;103259;1326;25268;-83
2021/12/22 09:17:03;;;;;;;90.10;38.80;;;;;;;-1.67;78.51;99527.64;103077;1324;138086;-83
2021/12/22 09:19:30;;;;;;;85.90;38.50;;;;;;;-1.63;78.29;99527.95;103924;1325;22914;-83
2021/12/22 09:21:57;;;;;;;78.20;33.30;;;;;;;-1.56;77.87;99525.59;103546;1325;137877;-83
2021/12/22 09:24:24;;;;;;;75.70;33.80;;;;;;;-1.55;77.40;99533.65;103515;1325;22586;-83
2021/12/22 09:26:51;;;;;;;67.50;31.80;;;;;;;-1.57;77.31;99536.13;103833;1319;25451;-83
2021/12/22 09:29:18;;;;;;;62.20;30.40;;;;;;;-1.55;77.42;99535.45;103631;1323;137630;-83
2021/12/22 09:31:45;;;;;;;56.60;27.20;;;;;;;-1.49;77.39;99543.11;103473;1322;24126;-83
2021/12/22 09:34:12;;;;;;;58.30;29.60;;;;;;;-1.49;77.00;99542.03;103544;1325;137634;-83
2021/12/22 09:36:42;;;;;;;63.40;27.50;;;;;;;-1.47;76.66;99542.58;103747;1319;25476;-84
2021/12/22 09:39:10;;;;;;;54.60;25.20;;;;;;;-1.42;76.75;99543.52;103542;1324;22660;-83
2021/12/22 09:41:37;;;;;;;49.00;23.40;;;;;;;-1.38;76.25;99538.52;103377;1326;137751;-83
2021/12/22 09:44:05;;;;;;;49.60;24.00;;;;;;;-1.38;76.02;99544.70;103261;1325;22734;-83
2021/12/22 09:46:34;;;;;;;54.10;26.60;;;;;;;-1.38;75.81;99543.83;103076;1325;139100;-83
2021/12/22 09:49:18;;;;;;;;;;;;;;;-1.41;75.66;99541.30;103581;1325;24109;-83
2021/12/22 09:54:32;;;;;;;51.60;25.20;;;;;;;-1.62;75.32;99537.02;103319;1320;22590;-85
2021/12/22 09:57:00;;;;;;;62.70;26.80;;;;;;;-1.73;75.25;99533.52;103479;1325;25357;-83
2021/12/22 09:59:28;;;;;;;58.90;26.60;;;;;;;-1.81;75.25;99532.48;103247;1318;137546;-82
2021/12/22 10:01:55;;;;;;;46.10;21.10;;;;;;;-1.87;74.92;99532.35;103882;1322;22673;-83
2021/12/22 10:04:22;;;;;;;48.50;21.50;;;;;;;-1.96;74.83;99534.86;103798;1319;138061;-83
2021/12/22 10:06:50;;;;;;;53.60;23.90;;;;;;;-1.99;74.94;99539.94;103586;1323;23606;-85
2021/12/22 10:09:23;;;;;;;51.40;22.40;;;;;;;-1.98;74.97;99541.52;103562;1325;138073;-83
2021/12/22 10:11:51;;;;;;;45.10;20.40;;;;;;;-2.03;74.68;99537.80;104023;1319;22604;-83
2021/12/22 10:14:21;;;;;;;42.70;20.90;;;;;;;-2.16;74.27;99540.21;103575;1323;22584;-84
2021/12/22 10:16:51;;;;;;;50.10;23.30;;;;;;;-2.26;74.81;99539.66;103118;1319;137510;-84
2021/12/22 10:19:19;;;;;;;58.30;26.10;;;;;;;-2.32;75.13;99541.29;103647;1319;22647;-84
2021/12/22 10:21:55;;;;;;;55.40;29.00;;;;;;;-2.35;75.78;99541.73;103070;1325;137823;-84
2021/12/22 10:24:39;;;;;;;66.20;28.30;;;;;;;-2.36;75.94;99537.02;103548;1324;23936;-85
2021/12/22 10:27:17;;;;;;;56.30;26.40;;;;;;;-2.37;76.12;99535.52;103873;1319;22597;-85
2021/12/22 10:29:46;;;;;;;53.80;25.20;;;;;;;-2.34;76.11;99530.63;103667;1324;137732;-85
2021/12/22 10:32:16;;;;;;;60.90;27.90;;;;;;;-2.26;76.04;99530.10;103702;1320;25270;-86
2021/12/22 10:34:58;;;;;;;53.50;26.70;;;;;;;-2.18;76.38;99526.14;103427;1324;138410;-85
2021/12/22 10:37:34;;;;;;;51.60;23.80;;;;;;;-2.04;76.20;99526.75;103438;1318;23112;-84
2021/12/22 10:40:25;;;;;;;52.00;23.40;;;;;;;-1.93;76.10;99523.05;103392;1319;137822;-84
2021/12/22 10:42:54;;;;;;;49.30;24.20;;;;;;;-1.81;76.02;99518.24;103579;1325;26713;-85
2021/12/22 10:45:23;;;;;;;45.30;23.70;;;;;;;-1.69;75.79;99518.08;103505;1325;24143;-85
2021/12/22 10:50:46;;;;;;;49.40;24.00;;;;;;;-1.52;75.64;99516.08;103223;1324;22590;-85
2021/12/22 10:53:14;;;;;;;45.80;22.70;;;;;;;-1.43;75.25;99508.58;103319;1322;137552;-86
2021/12/22 10:55:48;;;;;;;45.10;22.80;;;;;;;-1.38;74.93;99506.66;104679;1321;24480;-86
2021/12/22 10:58:34;;;;;;;42.70;20.80;;;;;;;-1.35;74.80;99505.84;104101;1325;137660;-86
2021/12/22 11:01:17;;;;;;;44.20;22.30;;;;;;;-1.32;74.24;99507.86;103692;1317;22594;-86
2021/12/22 11:03:53;;;;;;;37.80;18.30;;;;;;;-1.33;73.92;99509.91;103920;1325;138594;-86
2021/12/22 11:06:25;;;;;;;43.80;20.20;;;;;;;-1.36;73.95;99509.80;103936;1325;23547;-86
2021/12/22 11:09:24;;;;;;;37.20;18.50;;;;;;;-1.32;73.92;99510.16;104081;1318;22742;-88
2021/12/22 11:11:57;;;;;;;40.50;18.40;;;;;;;-1.31;73.67;99513.13;103625;1323;137566;-86
2021/12/22 11:14:29;;;;;;;35.50;17.90;;;;;;;-1.28;73.29;99512.55;104084;1325;23431;-87
2021/12/22 11:17:04;;;;;;;37.60;18.80;;;;;;;-1.24;73.19;99506.07;103872;1320;138484;-87
2021/12/22 11:19:35;;;;;;;40.30;18.90;;;;;;;-1.17;73.10;99504.17;103904;1319;23079;-87
2021/12/22 11:22:14;;;;;;;35.10;18.30;;;;;;;-1.12;72.89;99502.64;103580;1319;138411;-86
2021/12/22 11:24:46;;;;;;;36.30;18.50;;;;;;;-1.06;72.79;99505.11;103586;1323;25398;-86
2021/12/22 11:27:27;;;;;;;37.40;17.50;;;;;;;-1.00;72.83;99499.85;103487;1325;25374;-87
2021/12/22 11:29:58;;;;;;;33.70;16.80;;;;;;;-0.95;72.08;99497.45;103306;1325;137444;-86
2021/12/22 11:32:29;;;;;;;32.60;14.90;;;;;;;-0.92;71.78;99497.02;103609;1325;25405;-87
2021/12/22 11:34:59;;;;;;;31.30;15.40;;;;;;;-0.90;71.72;99495.94;103404;1322;137523;-87
2021/12/22 11:37:27;;;;;;;34.90;15.60;;;;;;;-0.88;71.43;99496.77;103417;1322;23969;-87
2021/12/22 11:39:57;;;;;;;31.10;16.00;;;;;;;-0.86;71.19;99496.22;103460;1324;138266;-87